sensor_id;sensor_type;location;lat;lon;timestamp;pressure;altitude;pressure_sealevel;temperature;humidity
53758;BME280;39674;59.860;30.672;2023-09-19T00:00:12;101465.44;;;6.54;100.00
53758;BME280;39674;59.860;30.672;2023-09-19T00:02:54;101452.31;;;6.54;100.00
53758;BME280;39674;59.860;30.672;2023-09-19T00:05:39;101460.28;;;6.51;100.00
53758;BME280;39674;59.860;30.672;2023-09-19T00:08:21;101453.34;;;6.47;100.00
53758;BME280;39674;59.860;30.672;2023-09-19T00:11:04;101447.31;;;6.43;100.00
53758;BME280;39674;59.860;30.672;2023-09-19T00:13:43;101443.94;;;6.38;100.00
53758;BME280;39674;59.860;30.672;2023-09-19T00:16:29;101445.81;;;6.33;100.00
53758;BME280;39674;59.860;30.672;2023-09-19T00:19:24;101436.28;;;6.28;100.00
53758;BME280;39674;59.860;30.672;2023-09-19T00:22:00;101432.91;;;6.22;100.00
53758;BME280;39674;59.860;30.672;2023-09-19T00:24:39;101438.28;;;6.16;100.00
53758;BME280;39674;59.860;30.672;2023-09-19T00:27:24;101433.13;;;6.13;100.00
53758;BME280;39674;59.860;30.672;2023-09-19T00:32:51;101424.59;;;6.02;100.00
53758;BME280;39674;59.860;30.672;2023-09-19T00:35:27;101429.94;;;5.95;100.00
53758;BME280;39674;59.860;30.672;2023-09-19T00:38:09;101433.47;;;5.94;100.00
53758;BME280;39674;59.860;30.672;2023-09-19T00:40:50;101430.81;;;5.96;100.00
53758;BME280;39674;59.860;30.672;2023-09-19T00:43:26;101424.78;;;5.92;100.00
53758;BME280;39674;59.860;30.672;2023-09-19T00:46:05;101424.91;;;5.86;100.00
53758;BME280;39674;59.860;30.672;2023-09-19T00:48:47;101428.50;;;5.81;100.00
53758;BME280;39674;59.860;30.672;2023-09-19T00:51:23;101428.59;;;5.76;100.00
53758;BME280;39674;59.860;30.672;2023-09-19T00:53:57;101420.84;;;5.70;100.00
53758;BME280;39674;59.860;30.672;2023-09-19T00:59:02;101418.31;;;5.65;100.00
53758;BME280;39674;59.860;30.672;2023-09-19T01:01:32;101422.72;;;5.65;100.00
53758;BME280;39674;59.860;30.672;2023-09-19T01:04:07;101413.13;;;5.63;100.00
53758;BME280;39674;59.860;30.672;2023-09-19T01:06:42;101413.13;;;5.63;100.00
53758;BME280;39674;59.860;30.672;2023-09-19T01:09:14;101405.28;;;5.62;100.00
53758;BME280;39674;59.860;30.672;2023-09-19T01:11:45;101404.41;;;5.61;100.00
53758;BME280;39674;59.860;30.672;2023-09-19T01:14:20;101407.06;;;5.60;100.00
53758;BME280;39674;59.860;30.672;2023-09-19T01:17:00;101390.50;;;5.59;100.00
53758;BME280;39674;59.860;30.672;2023-09-19T01:19:49;101387.03;;;5.57;100.00
53758;BME280;39674;59.860;30.672;2023-09-19T01:22:32;101378.41;;;5.52;100.00
53758;BME280;39674;59.860;30.672;2023-09-19T01:25:12;101373.19;;;5.51;100.00
53758;BME280;39674;59.860;30.672;2023-09-19T01:28:02;101366.22;;;5.48;100.00
53758;BME280;39674;59.860;30.672;2023-09-19T01:30:42;101360.22;;;5.43;100.00
53758;BME280;39674;59.860;30.672;2023-09-19T01:33:12;101352.50;;;5.37;100.00
53758;BME280;39674;59.860;30.672;2023-09-19T01:35:40;101349.94;;;5.32;100.00
53758;BME280;39674;59.860;30.672;2023-09-19T01:38:10;101341.28;;;5.30;100.00
53758;BME280;39674;59.860;30.672;2023-09-19T01:40:43;101329.06;;;5.29;100.00
53758;BME280;39674;59.860;30.672;2023-09-19T01:43:14;101323.00;;;5.28;100.00
53758;BME280;39674;59.860;30.672;2023-09-19T01:45:46;101317.75;;;5.28;100.00
53758;BME280;39674;59.860;30.672;2023-09-19T01:48:33;101320.38;;;5.27;100.00
53758;BME280;39674;59.860;30.672;2023-09-19T01:51:07;101317.75;;;5.28;100.00
53758;BME280;39674;59.860;30.672;2023-09-19T01:53:41;101312.50;;;5.28;100.00
53758;BME280;39674;59.860;30.672;2023-09-19T01:56:16;101317.75;;;5.28;100.00
53758;BME280;39674;59.860;30.672;2023-09-19T01:58:50;101301.94;;;5.32;100.00
53758;BME280;39674;59.860;30.672;2023-09-19T02:01:25;101304.53;;;5.33;100.00
53758;BME280;39674;59.860;30.672;2023-09-19T02:03:58;101301.03;;;5.34;100.00
53758;BME280;39674;59.860;30.672;2023-09-19T02:06:29;101304.53;;;5.33;100.00
53758;BME280;39674;59.860;30.672;2023-09-19T02:08:58;101295.81;;;5.33;100.00
53758;BME280;39674;59.860;30.672;2023-09-19T02:11:28;101282.78;;;5.29;100.00
53758;BME280;39674;59.860;30.672;2023-09-19T02:13:58;101282.78;;;5.29;100.00
53758;BME280;39674;59.860;30.672;2023-09-19T02:16:35;101286.31;;;5.28;100.00
53758;BME280;39674;59.860;30.672;2023-09-19T02:19:04;101277.53;;;5.29;100.00
53758;BME280;39674;59.860;30.672;2023-09-19T02:21:34;101265.28;;;5.32;100.00
53758;BME280;39674;59.860;30.672;2023-09-19T02:24:08;101267.84;;;5.35;100.00
53758;BME280;39674;59.860;30.672;2023-09-19T02:26:39;101262.63;;;5.33;100.00
53758;BME280;39674;59.860;30.672;2023-09-19T02:29:10;101251.28;;;5.33;100.00
53758;BME280;39674;59.860;30.672;2023-09-19T02:31:41;101251.34;;;5.29;100.00
53758;BME280;39674;59.860;30.672;2023-09-19T02:34:15;101245.31;;;5.27;100.00
53758;BME280;39674;59.860;30.672;2023-09-19T02:36:46;101245.31;;;5.26;100.00
53758;BME280;39674;59.860;30.672;2023-09-19T02:39:17;101241.81;;;5.27;100.00
53758;BME280;39674;59.860;30.672;2023-09-19T02:41:46;101242.69;;;5.27;100.00
53758;BME280;39674;59.860;30.672;2023-09-19T02:44:16;101232.22;;;5.27;100.00
53758;BME280;39674;59.860;30.672;2023-09-19T02:46:50;101224.34;;;5.27;100.00
53758;BME280;39674;59.860;30.672;2023-09-19T02:49:19;101213.78;;;5.30;100.00
53758;BME280;39674;59.860;30.672;2023-09-19T02:51:49;101212.84;;;5.33;100.00
53758;BME280;39674;59.860;30.672;2023-09-19T02:54:21;101215.38;;;5.38;100.00
53758;BME280;39674;59.860;30.672;2023-09-19T02:56:51;101198.78;;;5.39;100.00
53758;BME280;39674;59.860;30.672;2023-09-19T02:59:20;101196.09;;;5.40;100.00
53758;BME280;39674;59.860;30.672;2023-09-19T03:01:51;101195.19;;;5.43;100.00
53758;BME280;39674;59.860;30.672;2023-09-19T03:04:24;101195.19;;;5.43;100.00
53758;BME280;39674;59.860;30.672;2023-09-19T03:07:02;101180.34;;;5.43;100.00
53758;BME280;39674;59.860;30.672;2023-09-19T03:09:34;101180.28;;;5.45;100.00
53758;BME280;39674;59.860;30.672;2023-09-19T03:12:07;101179.41;;;5.46;100.00
53758;BME280;39674;59.860;30.672;2023-09-19T03:14:39;101168.84;;;5.49;100.00
53758;BME280;39674;59.860;30.672;2023-09-19T03:17:16;101160.97;;;5.51;100.00
53758;BME280;39674;59.860;30.672;2023-09-19T03:19:47;101159.19;;;5.51;100.00
53758;BME280;39674;59.860;30.672;2023-09-19T03:22:17;101149.56;;;5.53;100.00
53758;BME280;39674;59.860;30.672;2023-09-19T03:24:53;101152.97;;;5.55;100.00
53758;BME280;39674;59.860;30.672;2023-09-19T03:27:23;101151.19;;;5.57;100.00
53758;BME280;39674;59.860;30.672;2023-09-19T03:29:53;101151.19;;;5.57;100.00
53758;BME280;39674;59.860;30.672;2023-09-19T03:32:24;101145.00;;;5.60;100.00
53758;BME280;39674;59.860;30.672;2023-09-19T03:34:54;101142.34;;;5.63;100.00
53758;BME280;39674;59.860;30.672;2023-09-19T03:37:27;101140.50;;;5.67;100.00
53758;BME280;39674;59.860;30.672;2023-09-19T03:39:56;101135.09;;;5.73;100.00
53758;BME280;39674;59.860;30.672;2023-09-19T03:42:25;101128.00;;;5.78;100.00
53758;BME280;39674;59.860;30.672;2023-09-19T03:45:00;101118.25;;;5.83;100.00
53758;BME280;39674;59.860;30.672;2023-09-19T03:50:40;101111.88;;;5.93;100.00
53758;BME280;39674;59.860;30.672;2023-09-19T03:53:19;101103.03;;;5.98;100.00
53758;BME280;39674;59.860;30.672;2023-09-19T03:55:50;101094.19;;;6.02;100.00
53758;BME280;39674;59.860;30.672;2023-09-19T03:58:27;101090.59;;;6.06;100.00
53758;BME280;39674;59.860;30.672;2023-09-19T04:04:17;101073.81;;;6.13;100.00
53758;BME280;39674;59.860;30.672;2023-09-19T04:06:59;101067.56;;;6.17;100.00
53758;BME280;39674;59.860;30.672;2023-09-19T04:09:39;101065.78;;;6.19;100.00
53758;BME280;39674;59.860;30.672;2023-09-19T04:12:50;101067.41;;;6.23;100.00
53758;BME280;39674;59.860;30.672;2023-09-19T04:15:34;101055.97;;;6.26;100.00
53758;BME280;39674;59.860;30.672;2023-09-19T04:18:05;101055.00;;;6.29;100.00
53758;BME280;39674;59.860;30.672;2023-09-19T04:20:41;101047.97;;;6.31;100.00
53758;BME280;39674;59.860;30.672;2023-09-19T04:23:17;101045.28;;;6.32;100.00
53758;BME280;39674;59.860;30.672;2023-09-19T04:25:48;101037.38;;;6.34;100.00
53758;BME280;39674;59.860;30.672;2023-09-19T04:28:17;101029.44;;;6.37;100.00
53758;BME280;39674;59.860;30.672;2023-09-19T04:30:46;101020.66;;;6.38;100.00
53758;BME280;39674;59.860;30.672;2023-09-19T04:33:15;101024.91;;;6.42;100.00
53758;BME280;39674;59.860;30.672;2023-09-19T04:35:49;101012.59;;;6.44;100.00
53758;BME280;39674;59.860;30.672;2023-09-19T04:38:19;101006.34;;;6.48;100.00
53758;BME280;39674;59.860;30.672;2023-09-19T04:40:48;100994.00;;;6.52;100.00
53758;BME280;39674;59.860;30.672;2023-09-19T04:43:17;100989.44;;;6.58;100.00
53758;BME280;39674;59.860;30.672;2023-09-19T04:45:49;100982.34;;;6.61;100.00
53758;BME280;39674;59.860;30.672;2023-09-19T04:48:18;100982.22;;;6.65;100.00
53758;BME280;39674;59.860;30.672;2023-09-19T04:50:48;100969.81;;;6.70;100.00
53758;BME280;39674;59.860;30.672;2023-09-19T04:53:24;100966.22;;;6.73;100.00
53758;BME280;39674;59.860;30.672;2023-09-19T04:55:56;100960.88;;;6.76;100.00
53758;BME280;39674;59.860;30.672;2023-09-19T04:58:26;100970.34;;;6.82;100.00
53758;BME280;39674;59.860;30.672;2023-09-19T05:00:59;100967.56;;;6.86;100.00
53758;BME280;39674;59.860;30.672;2023-09-19T05:03:31;100973.47;;;6.93;100.00
53758;BME280;39674;59.860;30.672;2023-09-19T05:05:59;100977.63;;;7.00;100.00
53758;BME280;39674;59.860;30.672;2023-09-19T05:08:30;100966.06;;;7.06;100.00
53758;BME280;39674;59.860;30.672;2023-09-19T05:10:59;100964.03;;;7.14;100.00
53758;BME280;39674;59.860;30.672;2023-09-19T05:13:30;100958.63;;;7.19;100.00
53758;BME280;39674;59.860;30.672;2023-09-19T05:15:59;100954.97;;;7.23;100.00
53758;BME280;39674;59.860;30.672;2023-09-19T05:18:28;100953.03;;;7.30;100.00
53758;BME280;39674;59.860;30.672;2023-09-19T05:20:58;100946.66;;;7.37;100.00
53758;BME280;39674;59.860;30.672;2023-09-19T05:23:26;100939.41;;;7.44;100.00
53758;BME280;39674;59.860;30.672;2023-09-19T05:25:56;100937.41;;;7.50;100.00
53758;BME280;39674;59.860;30.672;2023-09-19T05:28:27;100929.50;;;7.52;100.00
53758;BME280;39674;59.860;30.672;2023-09-19T05:31:00;100924.97;;;7.55;100.00
53758;BME280;39674;59.860;30.672;2023-09-19T05:33:30;100927.41;;;7.60;100.00
53758;BME280;39674;59.860;30.672;2023-09-19T05:36:00;100927.84;;;7.73;100.00
53758;BME280;39674;59.860;30.672;2023-09-19T05:38:28;100928.97;;;7.91;100.00
53758;BME280;39674;59.860;30.672;2023-09-19T05:40:59;100926.31;;;8.15;100.00
53758;BME280;39674;59.860;30.672;2023-09-19T05:43:28;100912.09;;;8.43;100.00
53758;BME280;39674;59.860;30.672;2023-09-19T05:45:59;100899.88;;;8.64;100.00
53758;BME280;39674;59.860;30.672;2023-09-19T05:48:29;100897.81;;;8.72;100.00
53758;BME280;39674;59.860;30.672;2023-09-19T05:50:59;100896.69;;;8.78;100.00
53758;BME280;39674;59.860;30.672;2023-09-19T05:53:28;100883.31;;;8.82;100.00
53758;BME280;39674;59.860;30.672;2023-09-19T05:58:56;100873.19;;;8.94;100.00
53758;BME280;39674;59.860;30.672;2023-09-19T06:01:37;100881.97;;;8.94;100.00
53758;BME280;39674;59.860;30.672;2023-09-19T06:04:35;100877.09;;;9.06;100.00
53758;BME280;39674;59.860;30.672;2023-09-19T06:07:39;100871.81;;;9.26;100.00
53758;BME280;39674;59.860;30.672;2023-09-19T06:10:15;100878.56;;;9.53;100.00
53758;BME280;39674;59.860;30.672;2023-09-19T06:13:24;100859.66;;;9.83;100.00
53758;BME280;39674;59.860;30.672;2023-09-19T06:29:21;100832.59;;;11.06;100.00
53758;BME280;39674;59.860;30.672;2023-09-19T06:32:26;100831.06;;;11.36;100.00
53758;BME280;39674;59.860;30.672;2023-09-19T06:35:13;100829.50;;;11.65;100.00
53758;BME280;39674;59.860;30.672;2023-09-19T06:37:58;100821.50;;;11.83;100.00
53758;BME280;39674;59.860;30.672;2023-09-19T06:41:53;100815.38;;;11.98;100.00
53758;BME280;39674;59.860;30.672;2023-09-19T06:51:52;100801.88;;;11.87;100.00
53758;BME280;39674;59.860;30.672;2023-09-19T06:54:30;100792.81;;;11.91;100.00
53758;BME280;39674;59.860;30.672;2023-09-19T06:57:40;100779.00;;;11.86;100.00
53758;BME280;39674;59.860;30.672;2023-09-19T07:00:24;100786.59;;;11.92;100.00
53758;BME280;39674;59.860;30.672;2023-09-19T07:04:21;100784.81;;;12.09;100.00
53758;BME280;39674;59.860;30.672;2023-09-19T07:07:31;100772.69;;;12.04;100.00
53758;BME280;39674;59.860;30.672;2023-09-19T07:10:17;100775.91;;;12.10;100.00
53758;BME280;39674;59.860;30.672;2023-09-19T07:13:43;100766.53;;;12.20;100.00
53758;BME280;39674;59.860;30.672;2023-09-19T07:18:01;100769.41;;;12.31;100.00
53758;BME280;39674;59.860;30.672;2023-09-19T07:20:09;100752.59;;;12.47;100.00
53758;BME280;39674;59.860;30.672;2023-09-19T07:26:27;100752.47;;;12.79;100.00
53758;BME280;39674;59.860;30.672;2023-09-19T07:32:46;100750.22;;;12.87;100.00
53758;BME280;39674;59.860;30.672;2023-09-19T07:33:15;100742.38;;;12.86;100.00
53758;BME280;39674;59.860;30.672;2023-09-19T07:36:25;100736.03;;;13.03;100.00
53758;BME280;39674;59.860;30.672;2023-09-19T07:39:26;100735.66;;;13.09;100.00
53758;BME280;39674;59.860;30.672;2023-09-19T07:45:31;100730.16;;;13.26;100.00
53758;BME280;39674;59.860;30.672;2023-09-19T07:48:33;100733.38;;;13.31;100.00
53758;BME280;39674;59.860;30.672;2023-09-19T07:51:20;100725.44;;;13.46;100.00
53758;BME280;39674;59.860;30.672;2023-09-19T07:54:27;100726.16;;;13.62;100.00
53758;BME280;39674;59.860;30.672;2023-09-19T07:57:06;100722.16;;;13.70;100.00
53758;BME280;39674;59.860;30.672;2023-09-19T07:59:45;100702.22;;;13.77;100.00
53758;BME280;39674;59.860;30.672;2023-09-19T08:02:32;100702.88;;;13.80;100.00
53758;BME280;39674;59.860;30.672;2023-09-19T08:05:17;100701.63;;;13.86;100.00
53758;BME280;39674;59.860;30.672;2023-09-19T08:08:11;100692.00;;;13.98;100.00
53758;BME280;39674;59.860;30.672;2023-09-19T08:10:56;100687.44;;;14.00;100.00
53758;BME280;39674;59.860;30.672;2023-09-19T08:13:26;100681.63;;;14.08;100.00
53758;BME280;39674;59.860;30.672;2023-09-19T08:15:55;100677.38;;;14.18;100.00
53758;BME280;39674;59.860;30.672;2023-09-19T08:18:25;100681.16;;;14.28;100.00
53758;BME280;39674;59.860;30.672;2023-09-19T08:20:58;100673.59;;;14.35;100.00
53758;BME280;39674;59.860;30.672;2023-09-19T08:23:37;100672.41;;;14.39;100.00
53758;BME280;39674;59.860;30.672;2023-09-19T08:26:25;100668.31;;;14.48;100.00
53758;BME280;39674;59.860;30.672;2023-09-19T08:29:00;100655.63;;;14.52;100.00
53758;BME280;39674;59.860;30.672;2023-09-19T08:31:56;100647.34;;;14.56;100.00
53758;BME280;39674;59.860;30.672;2023-09-19T08:37:33;100641.31;;;14.67;100.00
53758;BME280;39674;59.860;30.672;2023-09-19T08:40:22;100641.00;;;14.72;100.00
53758;BME280;39674;59.860;30.672;2023-09-19T08:42:54;100639.28;;;14.84;100.00
53758;BME280;39674;59.860;30.672;2023-09-19T08:45:38;100624.19;;;14.84;100.00
53758;BME280;39674;59.860;30.672;2023-09-19T08:48:22;100626.91;;;14.96;100.00
53758;BME280;39674;59.860;30.672;2023-09-19T08:50:59;100619.81;;;15.20;100.00
53758;BME280;39674;59.860;30.672;2023-09-19T08:57:06;100612.31;;;15.63;100.00
53758;BME280;39674;59.860;30.672;2023-09-19T08:59:46;100611.72;;;15.83;100.00
53758;BME280;39674;59.860;30.672;2023-09-19T09:02:52;100604.78;;;16.16;100.00
53758;BME280;39674;59.860;30.672;2023-09-19T09:05:24;100594.19;;;16.50;100.00
53758;BME280;39674;59.860;30.672;2023-09-19T09:08:10;100586.28;;;16.83;100.00
53758;BME280;39674;59.860;30.672;2023-09-19T09:10:39;100589.06;;;17.15;100.00
53758;BME280;39674;59.860;30.672;2023-09-19T09:13:20;100582.38;;;17.54;100.00
53758;BME280;39674;59.860;30.672;2023-09-19T09:16:22;100580.06;;;17.81;100.00
53758;BME280;39674;59.860;30.672;2023-09-19T09:19:01;100575.72;;;18.02;100.00
53758;BME280;39674;59.860;30.672;2023-09-19T09:21:32;100564.03;;;18.24;100.00
53758;BME280;39674;59.860;30.672;2023-09-19T09:24:26;100562.72;;;18.39;100.00
53758;BME280;39674;59.860;30.672;2023-09-19T09:27:16;100550.00;;;18.63;100.00
53758;BME280;39674;59.860;30.672;2023-09-19T09:29:56;100547.25;;;18.84;100.00
53758;BME280;39674;59.860;30.672;2023-09-19T09:34:57;100549.13;;;19.03;100.00
53758;BME280;39674;59.860;30.672;2023-09-19T09:36:03;100539.03;;;19.26;98.69
53758;BME280;39674;59.860;30.672;2023-09-19T09:38:50;100536.78;;;19.41;99.85
53758;BME280;39674;59.860;30.672;2023-09-19T09:41:35;100531.41;;;19.51;98.13
53758;BME280;39674;59.860;30.672;2023-09-19T09:44:15;100523.66;;;19.67;98.60
53758;BME280;39674;59.860;30.672;2023-09-19T09:53:39;100514.38;;;20.19;96.09
53758;BME280;39674;59.860;30.672;2023-09-19T09:56:58;100515.75;;;20.33;93.49
53758;BME280;39674;59.860;30.672;2023-09-19T10:00:16;100510.75;;;20.48;92.37
53758;BME280;39674;59.860;30.672;2023-09-19T10:03:25;100506.06;;;20.50;92.85
53758;BME280;39674;59.860;30.672;2023-09-19T10:06:39;100500.97;;;20.57;92.46
53758;BME280;39674;59.860;30.672;2023-09-19T10:09:50;100491.59;;;20.61;92.52
53758;BME280;39674;59.860;30.672;2023-09-19T10:12:46;100485.97;;;20.64;91.95
53758;BME280;39674;59.860;30.672;2023-09-19T10:15:19;100484.47;;;20.79;90.78
53758;BME280;39674;59.860;30.672;2023-09-19T10:17:59;100477.03;;;20.91;92.14
53758;BME280;39674;59.860;30.672;2023-09-19T10:20:45;100475.97;;;20.84;90.17
53758;BME280;39674;59.860;30.672;2023-09-19T10:23:54;100477.66;;;20.85;90.20
53758;BME280;39674;59.860;30.672;2023-09-19T10:26:44;100467.56;;;20.69;91.14
53758;BME280;39674;59.860;30.672;2023-09-19T10:29:27;100456.19;;;20.85;92.77
53758;BME280;39674;59.860;30.672;2023-09-19T10:32:12;100462.03;;;20.98;90.66
53758;BME280;39674;59.860;30.672;2023-09-19T10:34:53;100462.56;;;21.02;92.81
53758;BME280;39674;59.860;30.672;2023-09-19T10:37:44;100452.03;;;21.09;91.76
53758;BME280;39674;59.860;30.672;2023-09-19T10:40:24;100456.03;;;21.05;92.02
53758;BME280;39674;59.860;30.672;2023-09-19T10:43:12;100451.72;;;20.94;92.67
53758;BME280;39674;59.860;30.672;2023-09-19T10:45:49;100438.75;;;20.71;94.32
53758;BME280;39674;59.860;30.672;2023-09-19T10:48:36;100433.09;;;20.74;94.80
53758;BME280;39674;59.860;30.672;2023-09-19T10:51:12;100423.50;;;20.72;95.01
53758;BME280;39674;59.860;30.672;2023-09-19T10:53:50;100419.50;;;20.76;95.68
53758;BME280;39674;59.860;30.672;2023-09-19T10:56:32;100413.78;;;20.89;95.48
53758;BME280;39674;59.860;30.672;2023-09-19T10:59:19;100411.78;;;20.91;95.85
53758;BME280;39674;59.860;30.672;2023-09-19T11:02:27;100398.50;;;20.89;93.14
53758;BME280;39674;59.860;30.672;2023-09-19T11:05:31;100395.34;;;20.58;95.26
53758;BME280;39674;59.860;30.672;2023-09-19T11:08:16;100383.06;;;20.37;96.65
53758;BME280;39674;59.860;30.672;2023-09-19T11:10:47;100389.84;;;20.31;97.96
53758;BME280;39674;59.860;30.672;2023-09-19T11:13:51;100392.25;;;20.34;98.60
53758;BME280;39674;59.860;30.672;2023-09-19T11:16:35;100389.19;;;20.47;99.09
53758;BME280;39674;59.860;30.672;2023-09-19T11:19:51;100380.63;;;20.62;98.72
53758;BME280;39674;59.860;30.672;2023-09-19T11:22:52;100388.22;;;20.66;98.14
53758;BME280;39674;59.860;30.672;2023-09-19T11:28:43;100370.09;;;20.68;98.67
53758;BME280;39674;59.860;30.672;2023-09-19T11:31:57;100383.97;;;20.74;98.52
53758;BME280;39674;59.860;30.672;2023-09-19T11:35:02;100371.91;;;20.78;96.88
53758;BME280;39674;59.860;30.672;2023-09-19T11:42:06;100360.78;;;20.73;97.94
53758;BME280;39674;59.860;30.672;2023-09-19T11:52:18;100356.72;;;20.87;98.85
53758;BME280;39674;59.860;30.672;2023-09-19T11:55:07;100351.06;;;20.90;99.69
53758;BME280;39674;59.860;30.672;2023-09-19T11:57:45;100347.91;;;20.94;100.00
53758;BME280;39674;59.860;30.672;2023-09-19T12:00:20;100339.22;;;21.00;99.98
53758;BME280;39674;59.860;30.672;2023-09-19T12:03:39;100337.56;;;21.08;99.21
53758;BME280;39674;59.860;30.672;2023-09-19T12:06:31;100346.31;;;21.10;99.06
53758;BME280;39674;59.860;30.672;2023-09-19T12:16:24;100329.78;;;20.96;97.28
53758;BME280;39674;59.860;30.672;2023-09-19T12:20:26;100335.69;;;21.00;98.02
53758;BME280;39674;59.860;30.672;2023-09-19T12:22:50;100332.09;;;20.91;98.58
53758;BME280;39674;59.860;30.672;2023-09-19T12:25:26;100325.72;;;20.92;99.05
53758;BME280;39674;59.860;30.672;2023-09-19T12:31:06;100324.22;;;20.90;98.98
53758;BME280;39674;59.860;30.672;2023-09-19T12:34:08;100321.34;;;20.91;99.27
53758;BME280;39674;59.860;30.672;2023-09-19T12:37:43;100330.41;;;20.90;99.61
53758;BME280;39674;59.860;30.672;2023-09-19T12:40:45;100310.19;;;20.78;99.72
53758;BME280;39674;59.860;30.672;2023-09-19T12:45:51;100309.88;;;20.81;98.81
53758;BME280;39674;59.860;30.672;2023-09-19T12:46:37;100302.28;;;20.76;99.38
53758;BME280;39674;59.860;30.672;2023-09-19T12:49:34;100301.44;;;20.76;98.58
53758;BME280;39674;59.860;30.672;2023-09-19T12:52:07;100306.19;;;20.64;98.76
53758;BME280;39674;59.860;30.672;2023-09-19T12:55:00;100302.28;;;20.58;99.16
53758;BME280;39674;59.860;30.672;2023-09-19T12:57:41;100297.22;;;20.55;99.89
53758;BME280;39674;59.860;30.672;2023-09-19T13:00:46;100290.63;;;20.49;100.00
53758;BME280;39674;59.860;30.672;2023-09-19T13:03:27;100288.41;;;20.45;100.00
53758;BME280;39674;59.860;30.672;2023-09-19T13:06:34;100281.22;;;20.45;100.00
53758;BME280;39674;59.860;30.672;2023-09-19T13:10:01;100270.63;;;20.44;100.00
53758;BME280;39674;59.860;30.672;2023-09-19T13:19:08;100269.78;;;20.43;100.00
53758;BME280;39674;59.860;30.672;2023-09-19T13:22:08;100258.75;;;20.46;100.00
53758;BME280;39674;59.860;30.672;2023-09-19T13:24:43;100255.94;;;20.48;100.00
53758;BME280;39674;59.860;30.672;2023-09-19T13:27:25;100248.88;;;20.47;100.00
53758;BME280;39674;59.860;30.672;2023-09-19T13:30:07;100234.75;;;20.45;100.00
53758;BME280;39674;59.860;30.672;2023-09-19T13:32:41;100238.44;;;20.44;100.00
53758;BME280;39674;59.860;30.672;2023-09-19T13:35:20;100235.09;;;20.42;100.00
53758;BME280;39674;59.860;30.672;2023-09-19T13:37:49;100225.88;;;20.44;100.00
53758;BME280;39674;59.860;30.672;2023-09-19T13:40:21;100220.97;;;20.40;100.00
53758;BME280;39674;59.860;30.672;2023-09-19T13:42:49;100216.59;;;20.39;100.00
53758;BME280;39674;59.860;30.672;2023-09-19T13:45:25;100219.28;;;20.39;100.00
53758;BME280;39674;59.860;30.672;2023-09-19T13:48:03;100204.34;;;20.36;100.00
53758;BME280;39674;59.860;30.672;2023-09-19T13:50:50;100205.59;;;20.42;100.00
53758;BME280;39674;59.860;30.672;2023-09-19T13:53:25;100203.38;;;20.37;100.00
53758;BME280;39674;59.860;30.672;2023-09-19T13:56:02;100199.53;;;20.40;100.00
53758;BME280;39674;59.860;30.672;2023-09-19T13:58:32;100203.53;;;20.35;100.00
53758;BME280;39674;59.860;30.672;2023-09-19T14:01:07;100197.53;;;20.42;100.00
53758;BME280;39674;59.860;30.672;2023-09-19T14:03:40;100190.78;;;20.38;100.00
53758;BME280;39674;59.860;30.672;2023-09-19T14:06:14;100180.06;;;20.38;100.00
53758;BME280;39674;59.860;30.672;2023-09-19T14:08:43;100182.75;;;20.38;100.00
53758;BME280;39674;59.860;30.672;2023-09-19T14:11:16;100177.75;;;20.43;100.00
53758;BME280;39674;59.860;30.672;2023-09-19T14:13:52;100177.53;;;20.36;100.00
53758;BME280;39674;59.860;30.672;2023-09-19T14:16:36;100170.81;;;20.32;100.00
53758;BME280;39674;59.860;30.672;2023-09-19T14:19:22;100172.34;;;20.34;100.00
53758;BME280;39674;59.860;30.672;2023-09-19T14:22:18;100160.09;;;20.32;100.00
53758;BME280;39674;59.860;30.672;2023-09-19T14:24:55;100177.00;;;20.32;100.00
53758;BME280;39674;59.860;30.672;2023-09-19T14:27:25;100162.91;;;20.30;100.00
53758;BME280;39674;59.860;30.672;2023-09-19T14:30:12;100162.91;;;20.30;100.00
53758;BME280;39674;59.860;30.672;2023-09-19T14:32:53;100164.59;;;20.31;100.00
53758;BME280;39674;59.860;30.672;2023-09-19T14:35:58;100160.56;;;20.27;100.00
53758;BME280;39674;59.860;30.672;2023-09-19T14:39:01;100150.28;;;20.23;100.00
53758;BME280;39674;59.860;30.672;2023-09-19T14:41:34;100152.13;;;20.22;100.00
53758;BME280;39674;59.860;30.672;2023-09-19T14:44:58;100143.47;;;20.28;100.00
53758;BME280;39674;59.860;30.672;2023-09-19T14:47:10;100142.69;;;20.18;100.00
53758;BME280;39674;59.860;30.672;2023-09-19T14:50:07;100132.84;;;20.18;100.00
53758;BME280;39674;59.860;30.672;2023-09-19T14:52:36;100138.34;;;20.17;100.00
53758;BME280;39674;59.860;30.672;2023-09-19T14:55:28;100128.31;;;20.19;100.00
53758;BME280;39674;59.860;30.672;2023-09-19T14:58:05;100123.28;;;20.16;100.00
53758;BME280;39674;59.860;30.672;2023-09-19T15:01:06;100126.53;;;20.10;100.00
53758;BME280;39674;59.860;30.672;2023-09-19T15:04:06;100125.88;;;20.08;100.00
53758;BME280;39674;59.860;30.672;2023-09-19T15:06:58;100123.19;;;20.08;100.00
53758;BME280;39674;59.860;30.672;2023-09-19T15:09:30;100112.09;;;20.02;100.00
53758;BME280;39674;59.860;30.672;2023-09-19T15:12:02;100112.09;;;20.02;100.00
53758;BME280;39674;59.860;30.672;2023-09-19T15:14:30;100107.22;;;19.98;100.00
53758;BME280;39674;59.860;30.672;2023-09-19T15:17:04;100112.03;;;19.94;100.00
53758;BME280;39674;59.860;30.672;2023-09-19T15:19:36;100112.72;;;19.96;100.00